sensor_id;sensor_type;location;lat;lon;timestamp;pressure;altitude;pressure_sealevel;temperature;humidity
19777;BME280;10047;42.490;26.012;2022-12-18T00:01:51;100112.97;;;12.02;100.00
19777;BME280;10047;42.490;26.012;2022-12-18T00:04:23;100233.50;;;12.58;100.00
19777;BME280;10047;42.490;26.012;2022-12-18T00:06:49;100225.31;;;12.48;100.00
19777;BME280;10047;42.490;26.012;2022-12-18T00:09:15;100232.69;;;12.57;100.00
19777;BME280;10047;42.490;26.012;2022-12-18T00:11:40;100150.69;;;12.17;100.00
19777;BME280;10047;42.490;26.012;2022-12-18T00:14:06;100224.50;;;12.48;100.00
19777;BME280;10047;42.490;26.012;2022-12-18T00:16:31;100166.72;;;12.20;100.00
19777;BME280;10047;42.490;26.012;2022-12-18T00:18:59;100167.44;;;12.24;100.00
19777;BME280;10047;42.490;26.012;2022-12-18T00:21:26;100252.25;;;12.57;100.00
19777;BME280;10047;42.490;26.012;2022-12-18T00:23:52;100260.31;;;12.71;100.00
19777;BME280;10047;42.490;26.012;2022-12-18T00:26:23;100185.69;;;12.12;100.00
19777;BME280;10047;42.490;26.012;2022-12-18T00:28:49;100166.19;;;12.11;100.00
19777;BME280;10047;42.490;26.012;2022-12-18T00:31:21;100255.47;;;12.62;100.00
19777;BME280;10047;42.490;26.012;2022-12-18T00:33:47;100280.91;;;12.65;100.00
19777;BME280;10047;42.490;26.012;2022-12-18T00:36:21;100198.44;;;12.12;100.00
19777;BME280;10047;42.490;26.012;2022-12-18T00:38:47;100203.69;;;12.07;100.00
19777;BME280;10047;42.490;26.012;2022-12-18T00:41:14;100224.78;;;12.11;100.00
19777;BME280;10047;42.490;26.012;2022-12-18T00:44:00;100206.13;;;12.10;100.00
19777;BME280;10047;42.490;26.012;2022-12-18T00:46:26;100229.81;;;12.14;100.00
19777;BME280;10047;42.490;26.012;2022-12-18T00:48:51;100332.22;;;12.82;100.00
19777;BME280;10047;42.490;26.012;2022-12-18T00:51:16;100253.94;;;12.30;100.00
19777;BME280;10047;42.490;26.012;2022-12-18T00:53:42;100168.91;;;11.77;100.00
19777;BME280;10047;42.490;26.012;2022-12-18T00:56:07;100222.47;;;12.03;100.00
19777;BME280;10047;42.490;26.012;2022-12-18T00:58:35;100309.34;;;12.53;100.00
19777;BME280;10047;42.490;26.012;2022-12-18T01:01:01;100238.56;;;12.05;100.00
19777;BME280;10047;42.490;26.012;2022-12-18T01:03:28;100232.69;;;12.03;100.00
19777;BME280;10047;42.490;26.012;2022-12-18T01:05:53;100322.03;;;12.54;100.00
19777;BME280;10047;42.490;26.012;2022-12-18T01:08:19;100246.06;;;12.10;100.00
19777;BME280;10047;42.490;26.012;2022-12-18T01:10:44;100307.66;;;12.24;100.00
19777;BME280;10047;42.490;26.012;2022-12-18T01:13:10;100342.31;;;12.59;100.00
19777;BME280;10047;42.490;26.012;2022-12-18T01:15:35;100328.66;;;12.32;100.00
19777;BME280;10047;42.490;26.012;2022-12-18T01:18:00;100259.41;;;11.90;100.00
19777;BME280;10047;42.490;26.012;2022-12-18T01:20:26;100229.97;;;11.80;100.00
19777;BME280;10047;42.490;26.012;2022-12-18T01:22:51;100286.25;;;12.30;100.00
19777;BME280;10047;42.490;26.012;2022-12-18T01:25:17;100299.25;;;12.50;100.00
19777;BME280;10047;42.490;26.012;2022-12-18T01:27:42;100294.88;;;12.53;100.00
19777;BME280;10047;42.490;26.012;2022-12-18T01:30:09;100130.13;;;11.40;100.00
19777;BME280;10047;42.490;26.012;2022-12-18T01:32:34;100268.78;;;12.17;100.00
19777;BME280;10047;42.490;26.012;2022-12-18T01:34:59;100227.69;;;11.71;100.00
19777;BME280;10047;42.490;26.012;2022-12-18T01:37:25;100353.47;;;12.27;100.00
19777;BME280;10047;42.490;26.012;2022-12-18T01:39:52;100339.81;;;12.28;100.00
19777;BME280;10047;42.490;26.012;2022-12-18T01:42:19;100298.81;;;12.08;100.00
19777;BME280;10047;42.490;26.012;2022-12-18T01:45:04;100228.78;;;11.61;100.00
19777;BME280;10047;42.490;26.012;2022-12-18T01:47:37;100189.94;;;11.24;100.00
19777;BME280;10047;42.490;26.012;2022-12-18T01:52:35;100344.00;;;11.71;100.00
19777;BME280;10047;42.490;26.012;2022-12-18T01:55:03;100347.06;;;11.50;100.00
19777;BME280;10047;42.490;26.012;2022-12-18T01:57:30;100198.69;;;10.48;100.00
19777;BME280;10047;42.490;26.012;2022-12-18T01:59:59;100334.50;;;11.10;100.00
19777;BME280;10047;42.490;26.012;2022-12-18T02:02:28;100332.06;;;11.07;100.00
19777;BME280;10047;42.490;26.012;2022-12-18T02:04:54;100186.56;;;10.25;100.00
19777;BME280;10047;42.490;26.012;2022-12-18T02:07:45;100272.03;;;10.65;100.00
19777;BME280;10047;42.490;26.012;2022-12-18T02:10:41;100365.50;;;11.25;100.00
19777;BME280;10047;42.490;26.012;2022-12-18T02:19:06;100264.03;;;10.80;100.00
19777;BME280;10047;42.490;26.012;2022-12-18T02:26:55;100296.84;;;10.90;100.00
19777;BME280;10047;42.490;26.012;2022-12-18T02:29:24;100359.28;;;11.37;100.00
19777;BME280;10047;42.490;26.012;2022-12-18T02:31:56;100379.38;;;11.48;100.00
19777;BME280;10047;42.490;26.012;2022-12-18T02:34:25;100357.69;;;11.33;100.00
19777;BME280;10047;42.490;26.012;2022-12-18T02:36:53;100317.50;;;11.12;100.00
19777;BME280;10047;42.490;26.012;2022-12-18T02:39:21;100364.50;;;11.32;100.00
19777;BME280;10047;42.490;26.012;2022-12-18T02:41:47;100268.72;;;10.61;100.00
19777;BME280;10047;42.490;26.012;2022-12-18T02:44:14;100291.34;;;10.72;100.00
19777;BME280;10047;42.490;26.012;2022-12-18T02:46:43;100365.59;;;10.86;100.00
19777;BME280;10047;42.490;26.012;2022-12-18T02:51:53;100388.31;;;10.95;100.00
19777;BME280;10047;42.490;26.012;2022-12-18T02:56:58;100302.69;;;10.59;100.00
19777;BME280;10047;42.490;26.012;2022-12-18T02:59:33;100403.81;;;11.21;100.00
19777;BME280;10047;42.490;26.012;2022-12-18T03:02:16;100415.16;;;11.42;100.00
19777;BME280;10047;42.490;26.012;2022-12-18T03:04:55;100328.13;;;10.94;100.00
19777;BME280;10047;42.490;26.012;2022-12-18T03:07:34;100319.91;;;10.83;100.00
19777;BME280;10047;42.490;26.012;2022-12-18T03:10:01;100359.44;;;10.96;100.00
19777;BME280;10047;42.490;26.012;2022-12-18T03:12:33;100422.09;;;11.35;100.00
19777;BME280;10047;42.490;26.012;2022-12-18T03:15:14;100430.53;;;11.37;100.00
19777;BME280;10047;42.490;26.012;2022-12-18T03:17:46;100425.41;;;11.40;100.00
19777;BME280;10047;42.490;26.012;2022-12-18T03:20:14;100425.44;;;11.37;100.00
19777;BME280;10047;42.490;26.012;2022-12-18T03:22:44;100323.47;;;10.76;100.00
19777;BME280;10047;42.490;26.012;2022-12-18T03:25:13;100336.22;;;10.74;100.00
19777;BME280;10047;42.490;26.012;2022-12-18T03:27:43;100429.13;;;11.25;100.00
19777;BME280;10047;42.490;26.012;2022-12-18T03:30:12;100341.56;;;10.62;100.00
19777;BME280;10047;42.490;26.012;2022-12-18T03:35:20;100443.16;;;11.06;100.00
19777;BME280;10047;42.490;26.012;2022-12-18T03:37:46;100457.22;;;11.22;100.00
19777;BME280;10047;42.490;26.012;2022-12-18T03:40:12;100465.91;;;11.12;100.00
19777;BME280;10047;42.490;26.012;2022-12-18T03:45:18;100373.47;;;10.37;100.00
19777;BME280;10047;42.490;26.012;2022-12-18T03:56:31;100474.81;;;11.31;100.00
19777;BME280;10047;42.490;26.012;2022-12-18T03:58:59;100328.41;;;10.45;100.00
19777;BME280;10047;42.490;26.012;2022-12-18T04:01:31;100463.34;;;11.14;100.00
19777;BME280;10047;42.490;26.012;2022-12-18T04:04:00;100506.09;;;11.37;100.00
19777;BME280;10047;42.490;26.012;2022-12-18T04:06:28;100463.56;;;11.03;100.00
19777;BME280;10047;42.490;26.012;2022-12-18T04:08:54;100434.38;;;10.83;100.00
19777;BME280;10047;42.490;26.012;2022-12-18T04:11:20;100482.16;;;11.07;100.00
19777;BME280;10047;42.490;26.012;2022-12-18T04:13:46;100520.72;;;11.27;100.00
19777;BME280;10047;42.490;26.012;2022-12-18T04:16:12;100515.75;;;11.22;100.00
19777;BME280;10047;42.490;26.012;2022-12-18T04:18:37;100432.84;;;10.74;100.00
19777;BME280;10047;42.490;26.012;2022-12-18T04:21:03;100512.31;;;11.23;100.00
19777;BME280;10047;42.490;26.012;2022-12-18T04:23:28;100472.13;;;10.99;100.00
19777;BME280;10047;42.490;26.012;2022-12-18T04:25:54;100481.53;;;10.96;100.00
19777;BME280;10047;42.490;26.012;2022-12-18T04:28:20;100489.38;;;11.62;100.00
19777;BME280;10047;42.490;26.012;2022-12-18T04:30:45;100435.47;;;10.70;100.00
19777;BME280;10047;42.490;26.012;2022-12-18T04:33:11;100541.19;;;11.22;100.00
19777;BME280;10047;42.490;26.012;2022-12-18T04:35:38;100506.97;;;10.96;100.00
19777;BME280;10047;42.490;26.012;2022-12-18T04:38:05;100547.09;;;11.24;100.00
19777;BME280;10047;42.490;26.012;2022-12-18T04:40:31;100464.94;;;10.80;100.00
19777;BME280;10047;42.490;26.012;2022-12-18T04:42:57;100582.59;;;11.29;100.00
19777;BME280;10047;42.490;26.012;2022-12-18T04:45:22;100584.03;;;11.42;100.00
19777;BME280;10047;42.490;26.012;2022-12-18T04:47:47;100496.94;;;10.91;100.00
19777;BME280;10047;42.490;26.012;2022-12-18T04:50:13;100578.06;;;11.43;100.00
19777;BME280;10047;42.490;26.012;2022-12-18T04:52:38;100588.38;;;11.37;100.00
19777;BME280;10047;42.490;26.012;2022-12-18T04:55:04;100469.69;;;10.55;100.00
19777;BME280;10047;42.490;26.012;2022-12-18T04:57:29;100576.34;;;11.04;100.00
19777;BME280;10047;42.490;26.012;2022-12-18T04:59:55;100594.25;;;11.01;100.00
19777;BME280;10047;42.490;26.012;2022-12-18T05:02:20;100595.94;;;11.00;100.00
19777;BME280;10047;42.490;26.012;2022-12-18T05:04:45;100509.84;;;10.39;100.00
19777;BME280;10047;42.490;26.012;2022-12-18T05:07:11;100540.81;;;10.60;100.00
19777;BME280;10047;42.490;26.012;2022-12-18T05:09:36;100569.09;;;10.87;100.00
19777;BME280;10047;42.490;26.012;2022-12-18T05:12:02;100497.63;;;10.57;100.00
19777;BME280;10047;42.490;26.012;2022-12-18T05:14:27;100606.47;;;11.25;100.00
19777;BME280;10047;42.490;26.012;2022-12-18T05:16:54;100529.59;;;10.68;100.00
19777;BME280;10047;42.490;26.012;2022-12-18T05:19:19;100609.31;;;11.10;100.00
19777;BME280;10047;42.490;26.012;2022-12-18T05:21:45;100559.16;;;10.75;100.00
19777;BME280;10047;42.490;26.012;2022-12-18T05:24:10;100524.06;;;10.48;100.00
19777;BME280;10047;42.490;26.012;2022-12-18T05:26:36;100627.31;;;11.01;100.00
19777;BME280;10047;42.490;26.012;2022-12-18T05:29:02;100565.41;;;10.58;100.00
19777;BME280;10047;42.490;26.012;2022-12-18T05:31:27;100526.16;;;10.26;100.00
19777;BME280;10047;42.490;26.012;2022-12-18T05:33:53;100636.13;;;10.83;100.00
19777;BME280;10047;42.490;26.012;2022-12-18T05:36:19;100559.94;;;10.33;100.00
19777;BME280;10047;42.490;26.012;2022-12-18T05:38:44;100540.66;;;10.21;100.00
19777;BME280;10047;42.490;26.012;2022-12-18T05:41:10;100625.22;;;10.77;100.00
19777;BME280;10047;42.490;26.012;2022-12-18T05:43:37;100661.34;;;10.94;100.00
19777;BME280;10047;42.490;26.012;2022-12-18T05:46:06;100560.78;;;10.33;100.00
19777;BME280;10047;42.490;26.012;2022-12-18T05:48:32;100654.56;;;10.94;100.00
19777;BME280;10047;42.490;26.012;2022-12-18T05:51:03;100646.41;;;10.77;100.00
19777;BME280;10047;42.490;26.012;2022-12-18T05:53:30;100569.84;;;10.46;100.00
19777;BME280;10047;42.490;26.012;2022-12-18T05:56:00;100687.44;;;11.05;100.00
19777;BME280;10047;42.490;26.012;2022-12-18T05:58:25;100588.44;;;10.48;100.00
19777;BME280;10047;42.490;26.012;2022-12-18T06:00:51;100572.56;;;10.36;100.00
19777;BME280;10047;42.490;26.012;2022-12-18T06:03:16;100699.41;;;11.00;100.00
19777;BME280;10047;42.490;26.012;2022-12-18T06:05:43;100544.81;;;10.25;100.00
19777;BME280;10047;42.490;26.012;2022-12-18T06:08:10;100670.56;;;11.01;100.00
19777;BME280;10047;42.490;26.012;2022-12-18T06:10:36;100639.69;;;10.75;100.00
19777;BME280;10047;42.490;26.012;2022-12-18T06:13:02;100622.97;;;10.60;100.00
19777;BME280;10047;42.490;26.012;2022-12-18T06:15:28;100695.19;;;10.99;100.00
19777;BME280;10047;42.490;26.012;2022-12-18T06:17:53;100707.84;;;11.02;100.00
19777;BME280;10047;42.490;26.012;2022-12-18T06:20:19;100628.34;;;10.45;100.00
19777;BME280;10047;42.490;26.012;2022-12-18T06:22:45;100662.88;;;10.57;100.00
19777;BME280;10047;42.490;26.012;2022-12-18T06:25:10;100652.78;;;10.54;100.00
19777;BME280;10047;42.490;26.012;2022-12-18T06:27:36;100721.69;;;10.87;100.00
19777;BME280;10047;42.490;26.012;2022-12-18T06:30:02;100725.13;;;10.85;100.00
19777;BME280;10047;42.490;26.012;2022-12-18T06:32:27;100576.81;;;9.84;100.00
19777;BME280;10047;42.490;26.012;2022-12-18T06:34:53;100727.00;;;10.74;100.00
19777;BME280;10047;42.490;26.012;2022-12-18T06:37:20;100756.50;;;10.84;100.00
19777;BME280;10047;42.490;26.012;2022-12-18T06:39:46;100743.75;;;10.87;100.00
19777;BME280;10047;42.490;26.012;2022-12-18T06:42:11;100757.47;;;10.77;100.00
19777;BME280;10047;42.490;26.012;2022-12-18T06:44:37;100669.91;;;10.41;100.00
19777;BME280;10047;42.490;26.012;2022-12-18T06:47:02;100650.75;;;10.22;100.00
19777;BME280;10047;42.490;26.012;2022-12-18T06:49:28;100759.19;;;10.76;100.00
19777;BME280;10047;42.490;26.012;2022-12-18T06:51:53;100680.19;;;10.35;100.00
19777;BME280;10047;42.490;26.012;2022-12-18T06:54:19;100722.28;;;10.51;100.00
19777;BME280;10047;42.490;26.012;2022-12-18T06:56:47;100680.22;;;10.33;100.00
19777;BME280;10047;42.490;26.012;2022-12-18T06:59:13;100772.63;;;10.83;100.00
19777;BME280;10047;42.490;26.012;2022-12-18T07:01:40;100773.59;;;10.77;100.00
19777;BME280;10047;42.490;26.012;2022-12-18T07:04:06;100744.19;;;10.58;100.00
19777;BME280;10047;42.490;26.012;2022-12-18T07:06:31;100787.84;;;10.86;100.00
19777;BME280;10047;42.490;26.012;2022-12-18T07:08:57;100807.34;;;10.87;100.00
19777;BME280;10047;42.490;26.012;2022-12-18T07:11:22;100710.00;;;10.25;100.00
19777;BME280;10047;42.490;26.012;2022-12-18T07:13:48;100801.66;;;10.71;100.00
19777;BME280;10047;42.490;26.012;2022-12-18T07:16:18;100810.91;;;10.75;100.00
19777;BME280;10047;42.490;26.012;2022-12-18T07:18:44;100832.97;;;10.75;100.00
19777;BME280;10047;42.490;26.012;2022-12-18T07:21:14;100832.16;;;10.70;100.00
19777;BME280;10047;42.490;26.012;2022-12-18T07:23:40;100843.16;;;10.73;100.00
19777;BME280;10047;42.490;26.012;2022-12-18T07:26:08;100763.28;;;10.28;100.00
19777;BME280;10047;42.490;26.012;2022-12-18T07:28:35;100739.88;;;10.10;100.00
19777;BME280;10047;42.490;26.012;2022-12-18T07:31:27;100850.84;;;10.69;100.00
19777;BME280;10047;42.490;26.012;2022-12-18T07:33:53;100838.25;;;10.61;100.00
19777;BME280;10047;42.490;26.012;2022-12-18T07:36:18;100758.47;;;10.07;100.00
19777;BME280;10047;42.490;26.012;2022-12-18T07:38:47;100703.16;;;9.65;100.00
19777;BME280;10047;42.490;26.012;2022-12-18T07:41:13;100883.13;;;10.64;100.00
19777;BME280;10047;42.490;26.012;2022-12-18T07:43:40;100840.25;;;10.39;100.00
19777;BME280;10047;42.490;26.012;2022-12-18T07:46:06;100889.78;;;10.72;100.00
19777;BME280;10047;42.490;26.012;2022-12-18T07:48:32;100801.53;;;10.19;100.00
19777;BME280;10047;42.490;26.012;2022-12-18T07:51:03;100822.59;;;10.29;100.00
19777;BME280;10047;42.490;26.012;2022-12-18T07:53:30;100896.53;;;12.26;100.00
19777;BME280;10047;42.490;26.012;2022-12-18T07:55:59;100808.81;;;10.45;100.00
19777;BME280;10047;42.490;26.012;2022-12-18T07:58:26;100911.78;;;11.31;100.00
19777;BME280;10047;42.490;26.012;2022-12-18T08:00:51;100904.13;;;10.76;100.00
19777;BME280;10047;42.490;26.012;2022-12-18T08:03:17;100838.44;;;10.48;100.00
19777;BME280;10047;42.490;26.012;2022-12-18T08:05:43;100930.19;;;10.92;100.00
19777;BME280;10047;42.490;26.012;2022-12-18T08:08:09;100923.59;;;10.80;100.00
19777;BME280;10047;42.490;26.012;2022-12-18T08:10:37;100813.50;;;10.08;100.00
19777;BME280;10047;42.490;26.012;2022-12-18T08:13:03;100848.81;;;10.32;100.00
19777;BME280;10047;42.490;26.012;2022-12-18T08:15:28;100866.41;;;10.46;100.00
19777;BME280;10047;42.490;26.012;2022-12-18T08:17:56;100943.81;;;10.88;100.00
19777;BME280;10047;42.490;26.012;2022-12-18T08:20:22;100772.13;;;9.99;100.00
19777;BME280;10047;42.490;26.012;2022-12-18T08:22:47;100941.34;;;10.85;100.00
19777;BME280;10047;42.490;26.012;2022-12-18T08:25:12;100954.03;;;10.86;100.00
19777;BME280;10047;42.490;26.012;2022-12-18T08:27:38;100842.81;;;10.36;100.00
19777;BME280;10047;42.490;26.012;2022-12-18T08:30:04;100781.44;;;9.98;100.00
19777;BME280;10047;42.490;26.012;2022-12-18T08:32:30;100949.69;;;10.94;100.00
19777;BME280;10047;42.490;26.012;2022-12-18T08:34:55;100870.88;;;10.91;100.00
19777;BME280;10047;42.490;26.012;2022-12-18T08:37:20;100888.31;;;10.56;100.00
19777;BME280;10047;42.490;26.012;2022-12-18T08:39:49;100884.13;;;11.10;100.00
19777;BME280;10047;42.490;26.012;2022-12-18T08:42:14;100963.94;;;11.06;100.00
19777;BME280;10047;42.490;26.012;2022-12-18T08:44:58;100891.88;;;10.43;100.00
19777;BME280;10047;42.490;26.012;2022-12-18T08:47:23;100880.00;;;10.42;100.00
19777;BME280;10047;42.490;26.012;2022-12-18T08:49:51;100977.56;;;11.02;100.00
19777;BME280;10047;42.490;26.012;2022-12-18T08:52:16;100967.13;;;10.56;100.00
19777;BME280;10047;42.490;26.012;2022-12-18T08:54:41;100899.13;;;10.02;100.00
19777;BME280;10047;42.490;26.012;2022-12-18T08:57:07;100968.91;;;10.50;100.00
19777;BME280;10047;42.490;26.012;2022-12-18T08:59:32;100878.81;;;10.02;100.00
19777;BME280;10047;42.490;26.012;2022-12-18T09:01:58;100871.41;;;9.79;100.00
19777;BME280;10047;42.490;26.012;2022-12-18T09:04:23;100883.28;;;9.80;100.00
19777;BME280;10047;42.490;26.012;2022-12-18T09:06:48;100884.84;;;9.89;100.00
19777;BME280;10047;42.490;26.012;2022-12-18T09:09:14;100965.72;;;10.31;100.00
19777;BME280;10047;42.490;26.012;2022-12-18T09:11:39;100874.84;;;9.75;100.00
19777;BME280;10047;42.490;26.012;2022-12-18T09:14:05;100928.81;;;9.95;100.00
19777;BME280;10047;42.490;26.012;2022-12-18T09:16:31;100900.16;;;9.83;100.00
19777;BME280;10047;42.490;26.012;2022-12-18T09:18:57;100979.50;;;10.07;100.00
19777;BME280;10047;42.490;26.012;2022-12-18T09:21:32;100964.81;;;10.36;100.00
19777;BME280;10047;42.490;26.012;2022-12-18T09:23:57;100967.97;;;10.60;100.00
19777;BME280;10047;42.490;26.012;2022-12-18T09:26:24;100912.59;;;10.11;100.00
19777;BME280;10047;42.490;26.012;2022-12-18T09:28:50;100949.75;;;10.21;100.00
19777;BME280;10047;42.490;26.012;2022-12-18T09:31:18;100911.97;;;9.88;100.00
19777;BME280;10047;42.490;26.012;2022-12-18T09:33:43;100927.13;;;9.96;100.00
19777;BME280;10047;42.490;26.012;2022-12-18T09:36:12;100990.31;;;10.30;100.00
19777;BME280;10047;42.490;26.012;2022-12-18T09:38:38;100991.16;;;10.31;100.00
19777;BME280;10047;42.490;26.012;2022-12-18T09:44:04;100933.53;;;10.31;100.00
19777;BME280;10047;42.490;26.012;2022-12-18T09:46:36;101008.63;;;10.60;100.00
19777;BME280;10047;42.490;26.012;2022-12-18T09:49:07;101001.13;;;10.49;100.00
19777;BME280;10047;42.490;26.012;2022-12-18T09:51:39;100913.84;;;9.70;100.00
19777;BME280;10047;42.490;26.012;2022-12-18T09:54:12;101007.31;;;10.22;100.00
19777;BME280;10047;42.490;26.012;2022-12-18T09:56:41;101011.28;;;10.49;100.00
19777;BME280;10047;42.490;26.012;2022-12-18T10:04:41;101005.28;;;10.58;100.00
19777;BME280;10047;42.490;26.012;2022-12-18T10:07:19;101026.19;;;10.78;100.00
19777;BME280;10047;42.490;26.012;2022-12-18T10:12:36;100925.84;;;10.37;100.00
19777;BME280;10047;42.490;26.012;2022-12-18T10:15:24;101016.78;;;10.86;100.00
19777;BME280;10047;42.490;26.012;2022-12-18T10:20:56;101003.34;;;10.76;100.00
19777;BME280;10047;42.490;26.012;2022-12-18T10:26:07;101012.31;;;11.04;100.00
19777;BME280;10047;42.490;26.012;2022-12-18T10:28:35;101026.03;;;10.93;100.00
19777;BME280;10047;42.490;26.012;2022-12-18T10:31:01;100929.50;;;10.12;100.00
19777;BME280;10047;42.490;26.012;2022-12-18T10:33:31;100862.25;;;9.66;100.00
19777;BME280;10047;42.490;26.012;2022-12-18T10:35:57;101029.13;;;10.48;100.00
19777;BME280;10047;42.490;26.012;2022-12-18T10:43:24;100948.19;;;10.10;100.00
19777;BME280;10047;42.490;26.012;2022-12-18T10:46:07;100941.38;;;10.13;100.00
19777;BME280;10047;42.490;26.012;2022-12-18T10:48:40;101030.75;;;10.50;100.00
19777;BME280;10047;42.490;26.012;2022-12-18T10:51:26;100946.44;;;10.09;100.00
19777;BME280;10047;42.490;26.012;2022-12-18T10:54:00;101052.78;;;10.51;100.00
19777;BME280;10047;42.490;26.012;2022-12-18T10:56:27;100924.91;;;9.63;100.00
19777;BME280;10047;42.490;26.012;2022-12-18T10:59:00;101061.16;;;10.61;100.00
19777;BME280;10047;42.490;26.012;2022-12-18T11:01:25;100947.44;;;9.96;100.00
19777;BME280;10047;42.490;26.012;2022-12-18T11:06:22;101056.31;;;10.36;100.00
19777;BME280;10047;42.490;26.012;2022-12-18T11:09:05;101065.47;;;10.53;100.00
19777;BME280;10047;42.490;26.012;2022-12-18T11:11:32;100973.78;;;9.86;100.00
19777;BME280;10047;42.490;26.012;2022-12-18T11:14:16;100936.56;;;9.82;100.00
19777;BME280;10047;42.490;26.012;2022-12-18T11:16:46;101026.00;;;10.20;100.00
19777;BME280;10047;42.490;26.012;2022-12-18T11:22:02;101058.78;;;10.45;100.00
19777;BME280;10047;42.490;26.012;2022-12-18T11:24:34;101027.47;;;10.40;100.00
19777;BME280;10047;42.490;26.012;2022-12-18T11:27:02;101054.72;;;10.29;100.00
19777;BME280;10047;42.490;26.012;2022-12-18T11:29:37;101060.69;;;10.25;100.00
19777;BME280;10047;42.490;26.012;2022-12-18T11:34:46;101073.97;;;10.53;100.00
19777;BME280;10047;42.490;26.012;2022-12-18T11:37:15;101067.75;;;9.86;100.00
19777;BME280;10047;42.490;26.012;2022-12-18T11:42:28;101081.97;;;10.08;100.00
19777;BME280;10047;42.490;26.012;2022-12-18T11:45:08;100973.34;;;9.38;100.00
19777;BME280;10047;42.490;26.012;2022-12-18T11:50:23;100982.78;;;9.14;100.00
19777;BME280;10047;42.490;26.012;2022-12-18T11:52:49;101079.72;;;9.69;100.00
19777;BME280;10047;42.490;26.012;2022-12-18T11:55:54;101077.88;;;9.90;100.00
19777;BME280;10047;42.490;26.012;2022-12-18T11:58:47;101072.91;;;9.74;100.00
19777;BME280;10047;42.490;26.012;2022-12-18T12:01:40;101081.31;;;9.82;100.00
19777;BME280;10047;42.490;26.012;2022-12-18T12:04:12;101110.06;;;9.87;100.00
19777;BME280;10047;42.490;26.012;2022-12-18T12:07:13;101078.78;;;9.79;100.00
19777;BME280;10047;42.490;26.012;2022-12-18T12:15:34;100971.81;;;9.12;100.00
19777;BME280;10047;42.490;26.012;2022-12-18T12:23:26;100911.94;;;8.88;100.00
19777;BME280;10047;42.490;26.012;2022-12-18T12:26:03;101079.72;;;9.69;100.00
19777;BME280;10047;42.490;26.012;2022-12-18T12:34:11;100995.03;;;9.73;100.00
19777;BME280;10047;42.490;26.012;2022-12-18T12:37:13;101083.91;;;9.77;100.00
19777;BME280;10047;42.490;26.012;2022-12-18T12:39:43;101084.88;;;9.55;100.00
19777;BME280;10047;42.490;26.012;2022-12-18T12:42:37;101019.72;;;9.55;100.00
19777;BME280;10047;42.490;26.012;2022-12-18T12:51:00;101125.16;;;10.11;100.00
19777;BME280;10047;42.490;26.012;2022-12-18T12:53:35;101152.34;;;9.95;100.00
19777;BME280;10047;42.490;26.012;2022-12-18T12:56:01;101145.53;;;10.00;100.00
19777;BME280;10047;42.490;26.012;2022-12-18T12:58:45;101143.94;;;9.86;100.00
19777;BME280;10047;42.490;26.012;2022-12-18T13:03:48;101152.41;;;9.83;100.00
19777;BME280;10047;42.490;26.012;2022-12-18T13:09:02;101060.53;;;9.22;100.00
19777;BME280;10047;42.490;26.012;2022-12-18T13:14:40;101154.13;;;9.81;100.00
19777;BME280;10047;42.490;26.012;2022-12-18T13:19:40;101163.44;;;9.84;100.00
19777;BME280;10047;42.490;26.012;2022-12-18T13:22:30;101058.13;;;8.97;100.00
19777;BME280;10047;42.490;26.012;2022-12-18T13:24:56;101041.25;;;8.88;100.00
19777;BME280;10047;42.490;26.012;2022-12-18T13:45:48;101101.34;;;8.38;100.00
19777;BME280;10047;42.490;26.012;2022-12-18T13:48:23;101074.34;;;8.47;100.00
19777;BME280;10047;42.490;26.012;2022-12-18T13:53:31;101183.25;;;8.81;100.00
19777;BME280;10047;42.490;26.012;2022-12-18T13:55:58;101202.69;;;9.03;100.00
19777;BME280;10047;42.490;26.012;2022-12-18T13:58:23;101132.59;;;8.67;100.00
19777;BME280;10047;42.490;26.012;2022-12-18T14:00:49;101209.44;;;8.95;100.00
19777;BME280;10047;42.490;26.012;2022-12-18T14:03:19;101230.59;;;8.79;100.00
19777;BME280;10047;42.490;26.012;2022-12-18T14:05:44;101135.94;;;8.16;100.00
19777;BME280;10047;42.490;26.012;2022-12-18T14:08:14;101130.03;;;7.96;100.00
19777;BME280;10047;42.490;26.012;2022-12-18T14:10:41;101150.28;;;7.95;100.00
19777;BME280;10047;42.490;26.012;2022-12-18T14:13:10;101210.25;;;8.11;100.00
19777;BME280;10047;42.490;26.012;2022-12-18T14:15:42;101213.59;;;8.05;100.00
19777;BME280;10047;42.490;26.012;2022-12-18T14:20:54;101106.22;;;7.19;100.00
19777;BME280;10047;42.490;26.012;2022-12-18T14:23:38;101236.34;;;7.85;100.00
19777;BME280;10047;42.490;26.012;2022-12-18T14:26:29;101238.06;;;7.88;100.00
19777;BME280;10047;42.490;26.012;2022-12-18T14:28:56;101242.25;;;7.80;100.00
19777;BME280;10047;42.490;26.012;2022-12-18T14:31:27;101139.00;;;7.03;100.00
19777;BME280;10047;42.490;26.012;2022-12-18T14:33:53;101159.31;;;7.16;100.00
19777;BME280;10047;42.490;26.012;2022-12-18T14:36:24;101201.53;;;7.30;100.00
19777;BME280;10047;42.490;26.012;2022-12-18T14:38:52;101259.94;;;7.72;100.00
19777;BME280;10047;42.490;26.012;2022-12-18T14:41:19;101259.78;;;7.47;100.00
19777;BME280;10047;42.490;26.012;2022-12-18T14:43:47;101264.81;;;7.41;100.00
19777;BME280;10047;42.490;26.012;2022-12-18T14:49:14;101292.50;;;7.17;100.00
19777;BME280;10047;42.490;26.012;2022-12-18T14:51:51;101191.88;;;6.67;100.00